Time;durP1;ratioP1;P1;durP2;ratioP2;P2;SDS_P1;SDS_P2;PMS_P1;PMS_P2;Temp;Humidity;BMP_temperature;BMP_pressure;BME280_temperature;BME280_humidity;BME280_pressure;Samples;Min_cycle;Max_cycle;Signal;HPM_P1;HPM_P2
2022/04/12 00:02:06;;;;;;;0.60;0.10;;;11.10;99.90;;;;;;5013621;28;20822;-77
2022/04/12 00:04:35;;;;;;;0.60;0.10;;;;;;;;;;5013366;28;20456;-76
2022/04/12 00:07:03;;;;;;;0.60;0.10;;;11.10;99.90;;;;;;5012580;28;20819;-77
2022/04/12 00:09:34;;;;;;;0.60;0.10;;;11.10;99.90;;;;;;5012925;28;20958;-76
2022/04/12 00:12:01;;;;;;;0.73;0.37;;;11.10;99.90;;;;;;5013246;28;20436;-77
2022/04/12 00:14:31;;;;;;;0.60;0.10;;;11.00;99.90;;;;;;5012682;28;20528;-77
2022/04/12 00:19:41;;;;;;;0.60;0.10;;;11.00;99.90;;;;;;5012762;28;20522;-76
2022/04/12 00:22:09;;;;;;;0.60;0.10;;;11.00;99.90;;;;;;5012919;28;20445;-76
2022/04/12 00:24:38;;;;;;;0.60;0.10;;;11.00;99.90;;;;;;5012482;28;20454;-77
2022/04/12 00:27:06;;;;;;;0.60;0.10;;;11.00;99.90;;;;;;5012267;28;20450;-77
2022/04/12 00:29:34;;;;;;;0.60;0.10;;;11.00;99.90;;;;;;5013153;28;20451;-76
2022/04/12 00:32:02;;;;;;;0.60;0.10;;;11.00;99.90;;;;;;5012928;28;21199;-77
2022/04/12 00:34:32;;;;;;;0.60;0.10;;;11.00;99.90;;;;;;5011744;28;20440;-77
2022/04/12 00:37:00;;;;;;;0.60;0.10;;;10.90;99.90;;;;;;5012158;28;20444;-77
2022/04/12 00:39:29;;;;;;;0.60;0.10;;;10.90;99.90;;;;;;5013616;28;20578;-77
2022/04/12 00:41:58;;;;;;;0.60;0.10;;;10.90;99.90;;;;;;5020899;28;20520;-76
2022/04/12 00:44:25;;;;;;;0.60;0.10;;;10.90;99.90;;;;;;5024429;28;20454;-77
2022/04/12 00:46:54;;;;;;;0.60;0.10;;;10.90;99.90;;;;;;5016250;28;20543;-76
2022/04/12 00:49:23;;;;;;;0.60;0.10;;;;;;;;;;5012783;28;20553;-77
2022/04/12 00:51:52;;;;;;;0.60;0.10;;;11.00;99.90;;;;;;5012522;28;20474;-77
2022/04/12 00:54:21;;;;;;;0.60;0.10;;;12.40;99.90;;;;;;5012107;28;20451;-76
2022/04/12 00:56:49;;;;;;;0.60;0.10;;;10.90;99.90;;;;;;5012072;28;20514;-77
2022/04/12 00:59:19;;;;;;;0.60;0.10;;;10.90;99.90;;;;;;5011947;28;20463;-77
2022/04/12 01:01:47;;;;;;;0.60;0.10;;;10.90;99.90;;;;;;5011757;28;21009;-77
2022/04/12 01:04:15;;;;;;;0.60;0.10;;;10.90;99.90;;;;;;5011526;28;20451;-77
2022/04/12 01:06:44;;;;;;;0.60;0.10;;;10.90;99.90;;;;;;4992553;28;20458;-76
2022/04/12 01:09:12;;;;;;;0.60;0.10;;;10.80;99.90;;;;;;4992450;28;20471;-78
2022/04/12 01:11:40;;;;;;;0.60;0.10;;;10.80;99.90;;;;;;4993546;28;20528;-77
2022/04/12 01:14:08;;;;;;;0.60;0.10;;;10.80;99.90;;;;;;4995086;28;20448;-78
2022/04/12 01:16:37;;;;;;;0.60;0.10;;;10.80;99.90;;;;;;5017158;28;20463;-77
2022/04/12 01:19:05;;;;;;;0.60;0.10;;;10.70;99.90;;;;;;5018441;28;20468;-76
2022/04/12 01:21:40;;;;;;;0.60;0.20;;;10.70;99.90;;;;;;5015242;28;20487;-78
2022/04/12 01:24:09;;;;;;;3.17;3.03;;;10.70;99.90;;;;;;5014080;28;20550;-77
2022/04/12 01:26:37;;;;;;;0.60;0.10;;;10.70;99.90;;;;;;5014252;28;20452;-77
2022/04/12 01:29:05;;;;;;;0.60;0.20;;;10.70;99.90;;;;;;5014452;28;20974;-77
2022/04/12 01:31:34;;;;;;;0.60;0.10;;;;;;;;;;5014067;28;20522;-78
2022/04/12 01:34:02;;;;;;;0.60;0.10;;;10.60;99.90;;;;;;5013701;28;20452;-75
2022/04/12 01:36:30;;;;;;;0.60;0.10;;;10.70;99.90;;;;;;5013360;28;20551;-77
2022/04/12 01:38:58;;;;;;;0.60;0.10;;;10.60;99.90;;;;;;5012759;28;20471;-76
2022/04/12 01:41:27;;;;;;;0.60;0.10;;;10.60;99.90;;;;;;5010282;28;20516;-76
2022/04/12 01:43:55;;;;;;;0.60;0.10;;;10.60;99.90;;;;;;5009558;28;20456;-77
2022/04/12 01:46:23;;;;;;;0.60;0.10;;;10.60;99.90;;;;;;5013514;28;20552;-77
2022/04/12 01:48:51;;;;;;;0.60;0.20;;;10.60;99.90;;;;;;5016342;28;20464;-77
2022/04/12 01:51:19;;;;;;;0.60;0.10;;;10.50;99.90;;;;;;5016402;28;20448;-77
2022/04/12 01:53:47;;;;;;;0.60;0.10;;;10.50;99.90;;;;;;5020015;28;20539;-77
2022/04/12 01:56:14;;;;;;;0.70;0.50;;;10.50;99.90;;;;;;5024058;28;20466;-76
2022/04/12 01:58:44;;;;;;;0.60;0.10;;;10.40;99.90;;;;;;5014825;28;20514;-77
2022/04/12 02:01:12;;;;;;;1.27;1.17;;;10.40;99.90;;;;;;5014933;28;20925;-76
2022/04/12 02:03:40;;;;;;;0.60;0.10;;;10.40;99.90;;;;;;5015463;28;20455;-77
2022/04/12 02:06:08;;;;;;;0.60;0.10;;;;;;;;;;5014351;28;20938;-77
2022/04/12 02:08:38;;;;;;;0.60;0.10;;;10.40;99.90;;;;;;5014575;28;20477;-77
2022/04/12 02:11:06;;;;;;;0.70;0.20;;;10.30;99.90;;;;;;5015329;28;20447;-77
2022/04/12 02:13:35;;;;;;;0.60;0.10;;;10.30;99.90;;;;;;5015039;28;20443;-77
2022/04/12 02:16:05;;;;;;;0.60;0.10;;;10.30;99.90;;;;;;5019378;28;20467;-77
2022/04/12 02:18:33;;;;;;;1.37;0.93;;;10.30;99.90;;;;;;5019538;28;20539;-77
2022/04/12 02:21:01;;;;;;;0.60;0.10;;;10.30;99.90;;;;;;5016545;28;20484;-77
2022/04/12 02:23:29;;;;;;;0.60;0.20;;;10.20;99.90;;;;;;5015362;28;20478;-77
2022/04/12 02:25:56;;;;;;;0.60;0.10;;;10.20;99.90;;;;;;5015013;28;20530;-76
2022/04/12 02:28:24;;;;;;;0.60;0.20;;;10.10;99.90;;;;;;5014357;28;20502;-77
2022/04/12 02:30:52;;;;;;;0.60;0.20;;;10.10;99.90;;;;;;5015218;28;20436;-77
2022/04/12 02:33:21;;;;;;;0.60;0.10;;;10.10;99.90;;;;;;5015387;28;20460;-77
2022/04/12 02:35:49;;;;;;;0.60;0.10;;;10.10;99.90;;;;;;5015111;28;20467;-78
2022/04/12 02:38:17;;;;;;;0.60;0.10;;;10.10;99.90;;;;;;5011297;28;20461;-77
2022/04/12 02:40:45;;;;;;;0.60;0.10;;;10.00;99.90;;;;;;5017116;28;20494;-78
2022/04/12 02:43:13;;;;;;;0.60;0.10;;;10.10;99.90;;;;;;5014877;28;20862;-77
2022/04/12 02:45:41;;;;;;;0.60;0.10;;;10.10;99.90;;;;;;5015217;28;20470;-78
2022/04/12 02:48:11;;;;;;;0.60;0.13;;;10.10;99.90;;;;;;5014744;28;20467;-77
2022/04/12 02:50:40;;;;;;;0.60;0.10;;;10.10;99.90;;;;;;5015120;28;20440;-76
2022/04/12 02:53:08;;;;;;;0.60;0.10;;;10.00;99.90;;;;;;5014593;28;20456;-77
2022/04/12 02:55:36;;;;;;;0.93;0.70;;;10.00;99.90;;;;;;5015094;28;20448;-78
2022/04/12 02:58:04;;;;;;;0.60;0.10;;;10.00;99.90;;;;;;5020323;28;20467;-77
2022/04/12 03:00:32;;;;;;;0.60;0.10;;;10.00;99.90;;;;;;5021932;28;20448;-77
2022/04/12 03:03:00;;;;;;;0.60;0.10;;;10.10;99.90;;;;;;5020991;28;20543;-77
2022/04/12 03:05:28;;;;;;;0.60;0.20;;;10.00;99.90;;;;;;4995172;28;20453;-77
2022/04/12 03:07:57;;;;;;;0.60;0.10;;;10.00;99.90;;;;;;4994525;28;20469;-77
2022/04/12 03:10:25;;;;;;;0.60;0.10;;;10.00;99.90;;;;;;5014274;28;20468;-77
2022/04/12 03:12:53;;;;;;;0.60;0.10;;;10.00;99.90;;;;;;5017630;28;20462;-77
2022/04/12 03:15:21;;;;;;;0.60;0.10;;;10.00;99.90;;;;;;5013978;28;20453;-77
2022/04/12 03:17:49;;;;;;;0.60;0.10;;;10.00;99.90;;;;;;5013865;28;20514;-76
2022/04/12 03:20:17;;;;;;;0.60;0.10;;;10.00;99.90;;;;;;5014126;28;20452;-77
2022/04/12 03:22:45;;;;;;;0.60;0.10;;;10.00;99.90;;;;;;5014621;28;20484;-77
2022/04/12 03:25:14;;;;;;;0.60;0.10;;;9.90;99.90;;;;;;5014559;28;20459;-77
2022/04/12 03:27:42;;;;;;;0.60;0.10;;;9.90;99.90;;;;;;5013671;28;20464;-77
2022/04/12 03:30:10;;;;;;;0.60;0.10;;;9.90;99.90;;;;;;5013607;28;21011;-77
2022/04/12 03:32:38;;;;;;;0.60;0.10;;;9.90;99.90;;;;;;5013626;28;20471;-77
2022/04/12 03:35:07;;;;;;;0.60;0.10;;;9.90;99.90;;;;;;5013057;28;21032;-77
2022/04/12 03:37:35;;;;;;;0.60;0.10;;;9.80;99.90;;;;;;5013692;28;20460;-77
2022/04/12 03:40:03;;;;;;;0.70;0.37;;;9.80;99.90;;;;;;5014092;28;20443;-77
2022/04/12 03:42:33;;;;;;;0.60;0.10;;;9.80;99.90;;;;;;5013846;28;20467;-78
2022/04/12 03:45:00;;;;;;;0.60;0.10;;;9.80;99.90;;;;;;5012798;28;20448;-77
2022/04/12 03:47:28;;;;;;;0.60;0.20;;;9.70;99.90;;;;;;5014861;28;20468;-77
2022/04/12 03:49:56;;;;;;;0.60;0.10;;;9.70;99.90;;;;;;5018505;28;20514;-77
2022/04/12 03:52:24;;;;;;;0.60;0.10;;;9.70;99.90;;;;;;5015770;28;20535;-77
2022/04/12 03:54:52;;;;;;;0.60;0.10;;;9.70;99.90;;;;;;5013412;28;20460;-78
2022/04/12 03:57:20;;;;;;;0.60;0.10;;;;;;;;;;5014565;28;20464;-78
2022/04/12 03:59:49;;;;;;;0.60;0.10;;;9.70;99.90;;;;;;5029698;28;20977;-78
2022/04/12 04:02:17;;;;;;;0.60;0.10;;;9.60;99.90;;;;;;5026819;28;20559;-77
2022/04/12 04:04:45;;;;;;;0.90;0.50;;;9.60;99.90;;;;;;5013035;28;20490;-77
2022/04/12 04:07:13;;;;;;;0.60;0.10;;;9.60;99.90;;;;;;5012026;28;20479;-77
2022/04/12 04:09:41;;;;;;;0.60;0.10;;;9.60;99.90;;;;;;5012776;28;20452;-77
2022/04/12 04:12:11;;;;;;;0.60;0.10;;;9.60;99.90;;;;;;5012625;28;20439;-77
2022/04/12 04:14:42;;;;;;;0.60;0.10;;;9.50;99.90;;;;;;5012446;28;20448;-77
2022/04/12 04:17:11;;;;;;;0.60;0.10;;;9.40;99.90;;;;;;5012899;28;20848;-77
2022/04/12 04:19:39;;;;;;;0.83;0.47;;;9.40;99.90;;;;;;5017280;28;20459;-77
2022/04/12 04:22:07;;;;;;;0.60;0.10;;;9.40;99.90;;;;;;5013129;28;20476;-77
2022/04/12 04:24:35;;;;;;;0.60;0.10;;;9.40;99.90;;;;;;5019975;28;20451;-76
2022/04/12 04:27:05;;;;;;;0.60;0.10;;;9.30;99.90;;;;;;5028035;28;20547;-77
2022/04/12 04:29:35;;;;;;;0.60;0.10;;;9.30;99.90;;;;;;5013072;28;20459;-78
2022/04/12 04:32:04;;;;;;;0.60;0.10;;;9.30;99.90;;;;;;5013218;28;20464;-76
2022/04/12 04:34:33;;;;;;;0.60;0.10;;;9.20;99.90;;;;;;5012754;28;20473;-77
2022/04/12 04:37:01;;;;;;;0.60;0.20;;;9.20;99.90;;;;;;5003251;28;20452;-77
2022/04/12 04:39:29;;;;;;;0.60;0.23;;;9.20;99.90;;;;;;4992813;28;20955;-77
2022/04/12 04:41:56;;;;;;;0.60;0.10;;;9.20;99.90;;;;;;4999832;28;20472;-76
2022/04/12 04:44:24;;;;;;;0.60;0.10;;;9.20;99.90;;;;;;5012579;28;20447;-77
2022/04/12 04:46:53;;;;;;;0.60;0.10;;;;;;;;;;5012310;28;20452;-77
2022/04/12 04:49:20;;;;;;;0.60;0.10;;;9.20;99.90;;;;;;5012618;28;20900;-77
2022/04/12 04:51:50;;;;;;;0.60;0.10;;;9.30;99.90;;;;;;5012944;28;20872;-77
2022/04/12 04:54:18;;;;;;;0.60;0.10;;;9.20;99.90;;;;;;5015518;28;21190;-77
2022/04/12 04:56:46;;;;;;;0.60;0.10;;;9.20;99.90;;;;;;5016248;28;20493;-77
2022/04/12 04:59:13;;;;;;;0.60;0.10;;;9.30;99.90;;;;;;5014508;28;20510;-78
2022/04/12 05:01:41;;;;;;;0.70;0.30;;;9.20;99.90;;;;;;5015410;28;20456;-77
2022/04/12 05:04:09;;;;;;;0.60;0.10;;;9.30;99.90;;;;;;5016191;28;20445;-76
2022/04/12 05:06:37;;;;;;;0.60;0.10;;;9.20;99.90;;;;;;5013363;28;20440;-77
2022/04/12 05:09:07;;;;;;;0.60;0.10;;;9.30;99.90;;;;;;5014518;28;21026;-77
2022/04/12 05:11:37;;;;;;;0.60;0.10;;;9.30;99.90;;;;;;5015385;28;20563;-78
2022/04/12 05:14:05;;;;;;;0.60;0.10;;;9.30;99.90;;;;;;5024644;28;20515;-77
2022/04/12 05:16:33;;;;;;;0.60;0.10;;;9.30;99.90;;;;;;5018576;28;20479;-77
2022/04/12 05:19:01;;;;;;;0.60;0.10;;;9.30;99.90;;;;;;5012878;28;20467;-77
2022/04/12 05:21:29;;;;;;;0.60;0.10;;;9.30;99.90;;;;;;5013508;28;20462;-77
2022/04/12 05:23:57;;;;;;;0.60;0.10;;;9.40;99.90;;;;;;5016607;28;20485;-78
2022/04/12 05:26:27;;;;;;;0.60;0.10;;;9.40;99.90;;;;;;5011794;28;20555;-77
2022/04/12 05:28:55;;;;;;;0.60;0.10;;;9.40;99.90;;;;;;4996373;28;20472;-77
2022/04/12 05:31:22;;;;;;;0.60;0.10;;;9.50;99.90;;;;;;5015215;28;20463;-77
2022/04/12 05:33:50;;;;;;;0.60;0.10;;;9.50;99.90;;;;;;5003896;28;20460;-77
2022/04/12 05:36:18;;;;;;;0.60;0.10;;;9.50;99.90;;;;;;4996500;28;20468;-78
2022/04/12 05:38:46;;;;;;;0.60;0.10;;;9.50;99.90;;;;;;4997641;28;20493;-77
2022/04/12 05:41:14;;;;;;;0.60;0.10;;;9.50;99.90;;;;;;4999734;28;20449;-78
2022/04/12 05:43:43;;;;;;;0.60;0.10;;;9.50;99.90;;;;;;5005015;28;20483;-77
2022/04/12 05:46:11;;;;;;;0.60;0.10;;;9.50;99.90;;;;;;5005094;28;20552;-77
2022/04/12 05:48:39;;;;;;;0.60;0.10;;;9.60;99.90;;;;;;5005211;28;20478;-77
2022/04/12 05:51:07;;;;;;;0.60;0.10;;;9.60;99.90;;;;;;5025178;28;20446;-78
2022/04/12 05:53:36;;;;;;;0.60;0.10;;;9.60;99.90;;;;;;5020676;28;20927;-78
2022/04/12 05:56:04;;;;;;;3.17;2.37;;;9.70;99.90;;;;;;5017708;28;21201;-78
2022/04/12 05:58:35;;;;;;;0.60;0.10;;;9.80;99.90;;;;;;5007787;28;20505;-78
2022/04/12 06:01:04;;;;;;;0.60;0.10;;;9.80;99.90;;;;;;5016853;28;20534;-78
2022/04/12 06:03:33;;;;;;;0.60;0.10;;;9.90;99.90;;;;;;5016787;28;20487;-77
2022/04/12 06:06:01;;;;;;;0.60;0.10;;;9.90;99.90;;;;;;5015425;28;20452;-77
2022/04/12 06:08:29;;;;;;;0.60;0.10;;;10.00;99.90;;;;;;5015232;28;20508;-77
2022/04/12 06:10:57;;;;;;;0.60;0.10;;;10.00;99.90;;;;;;5017196;28;20513;-79
2022/04/12 06:13:25;;;;;;;0.60;0.10;;;10.10;99.90;;;;;;5011362;28;20930;-78
2022/04/12 06:15:54;;;;;;;0.60;0.20;;;;;;;;;;5013760;28;20463;-79
2022/04/12 06:18:23;;;;;;;2.83;1.50;;;10.20;99.90;;;;;;5015907;28;20507;-78
2022/04/12 06:20:52;;;;;;;1.90;1.80;;;;;;;;;;5015991;28;20822;-78
2022/04/12 06:23:21;;;;;;;0.60;0.10;;;;;;;;;;5016235;28;21172;-78
2022/04/12 06:25:49;;;;;;;0.60;0.10;;;10.40;99.90;;;;;;5014124;28;20510;-77
2022/04/12 06:28:17;;;;;;;0.60;0.10;;;10.40;99.90;;;;;;5008265;28;20570;-78
2022/04/12 06:30:45;;;;;;;0.60;0.10;;;10.50;99.90;;;;;;5016116;28;21013;-77
2022/04/12 06:33:13;;;;;;;0.60;0.10;;;10.50;99.90;;;;;;5016399;28;20444;-78
2022/04/12 06:35:42;;;;;;;0.60;0.10;;;10.70;99.90;;;;;;5024346;28;20546;-77
2022/04/12 06:38:11;;;;;;;0.60;0.10;;;10.70;99.90;;;;;;5025771;28;20475;-78
2022/04/12 06:40:41;;;;;;;0.60;0.20;;;10.80;99.90;;;;;;5026690;28;20528;-78
2022/04/12 06:43:09;;;;;;;0.60;0.10;;;10.90;99.90;;;;;;5015739;28;20476;-78
2022/04/12 06:45:37;;;;;;;0.60;0.20;;;11.00;99.90;;;;;;5015846;28;20512;-78
2022/04/12 06:48:05;;;;;;;0.60;0.10;;;11.00;99.90;;;;;;5014898;28;20464;-78
2022/04/12 06:50:34;;;;;;;0.60;0.10;;;11.00;99.90;;;;;;5012251;28;20472;-79
2022/04/12 06:53:04;;;;;;;0.60;0.10;;;11.10;99.90;;;;;;5016022;28;20531;-78
2022/04/12 06:55:32;;;;;;;0.60;0.10;;;11.10;99.90;;;;;;5014428;28;20556;-78
2022/04/12 06:58:00;;;;;;;0.60;0.10;;;11.20;99.90;;;;;;5014547;28;20484;-78
2022/04/12 07:00:28;;;;;;;0.60;0.10;;;11.20;99.90;;;;;;5016145;28;20480;-79
2022/04/12 07:02:56;;;;;;;0.60;0.10;;;11.20;99.90;;;;;;5017233;28;20455;-79
2022/04/12 07:05:24;;;;;;;0.60;0.10;;;11.30;99.90;;;;;;5012374;28;20460;-79
2022/04/12 07:07:54;;;;;;;0.60;0.10;;;11.30;99.90;;;;;;5014655;28;20503;-79
2022/04/12 07:10:24;;;;;;;0.70;0.40;;;11.30;99.90;;;;;;5014336;28;20453;-77
2022/04/12 07:12:53;;;;;;;0.60;0.10;;;11.30;99.90;;;;;;5011063;28;20912;-78
2022/04/12 07:15:22;;;;;;;0.60;0.10;;;11.50;99.90;;;;;;5012854;28;20448;-78
2022/04/12 07:17:50;;;;;;;0.60;0.10;;;11.50;99.90;;;;;;5010336;28;20463;-78
2022/04/12 07:20:18;;;;;;;0.60;0.10;;;11.60;99.90;;;;;;5011593;28;20460;-78
2022/04/12 07:22:46;;;;;;;0.60;0.10;;;;;;;;;;5013916;28;20523;-78
2022/04/12 07:25:14;;;;;;;0.60;0.10;;;11.70;99.90;;;;;;5010301;28;20468;-79
2022/04/12 07:27:43;;;;;;;0.60;0.10;;;11.80;99.90;;;;;;5029034;28;20478;-78
2022/04/12 07:30:14;;;;;;;0.60;0.10;;;11.90;99.90;;;;;;5037074;28;20439;-79
2022/04/12 07:33:02;;;;;;;0.60;0.10;;;12.00;99.90;;;;;;5023813;28;20452;-79
2022/04/12 07:35:30;;;;;;;0.60;0.10;;;12.10;99.90;;;;;;5029974;28;20448;-78
2022/04/12 07:38:00;;;;;;;0.60;0.10;;;;;;;;;;5017258;28;20509;-78
2022/04/12 07:40:29;;;;;;;0.60;0.10;;;12.40;99.90;;;;;;5014709;28;20468;-78
2022/04/12 07:43:02;;;;;;;0.60;0.20;;;12.40;99.90;;;;;;5015506;28;20487;-78
2022/04/12 07:45:47;;;;;;;0.60;0.10;;;12.50;99.90;;;;;;4997575;28;20452;-78
2022/04/12 07:48:44;;;;;;;0.60;0.20;;;12.70;99.90;;;;;;5008685;28;20463;-79
2022/04/12 07:51:15;;;;;;;0.60;0.10;;;12.70;99.90;;;;;;5013617;28;20481;-77
2022/04/12 07:53:47;;;;;;;0.60;0.10;;;12.90;99.90;;;;;;5018538;28;20463;-78
2022/04/12 07:56:17;;;;;;;0.60;0.10;;;12.90;99.90;;;;;;5020801;28;20538;-79
2022/04/12 07:58:50;;;;;;;0.90;0.60;;;12.90;99.90;;;;;;5007543;28;20955;-78
2022/04/12 08:01:35;;;;;;;0.60;0.10;;;12.90;99.90;;;;;;5006274;28;20431;-78
2022/04/12 08:04:11;;;;;;;0.60;0.10;;;12.90;99.90;;;;;;5007021;28;20476;-79
2022/04/12 08:06:57;;;;;;;0.60;0.10;;;13.00;99.90;;;;;;5002528;28;20444;-78
2022/04/12 08:09:42;;;;;;;1.53;1.10;;;13.10;99.90;;;;;;5020373;28;20456;-78
2022/04/12 08:12:16;;;;;;;0.60;0.20;;;13.10;99.90;;;;;;5019562;28;20451;-78
2022/04/12 08:14:54;;;;;;;2.60;2.50;;;13.20;99.90;;;;;;5016392;28;20456;-78
2022/04/12 08:17:29;;;;;;;0.60;0.10;;;13.30;99.90;;;;;;5017326;28;20476;-78
2022/04/12 08:20:05;;;;;;;0.80;0.50;;;13.40;99.90;;;;;;5033662;28;20464;-77
2022/04/12 08:22:46;;;;;;;0.60;0.10;;;13.40;99.90;;;;;;5022505;28;20474;-79
2022/04/12 08:25:21;;;;;;;0.60;0.20;;;13.60;99.90;;;;;;5017568;28;20492;-79
2022/04/12 08:28:06;;;;;;;0.60;0.10;;;13.70;99.90;;;;;;5018732;28;20478;-76
2022/04/12 08:30:42;;;;;;;0.60;0.10;;;;;;;;;;4996696;28;20473;-77
2022/04/12 08:33:14;;;;;;;0.60;0.10;;;13.90;99.90;;;;;;4995220;28;20441;-78
2022/04/12 08:35:55;;;;;;;0.60;0.10;;;13.90;99.90;;;;;;4999827;28;20454;-78
2022/04/12 08:38:27;;;;;;;3.70;3.40;;;13.90;99.90;;;;;;5004945;28;20504;-78
2022/04/12 08:41:08;;;;;;;1.60;1.50;;;13.90;99.90;;;;;;5017998;28;20499;-79
2022/04/12 08:43:46;;;;;;;0.60;0.10;;;14.00;99.90;;;;;;5017670;28;20508;-80
2022/04/12 08:46:27;;;;;;;0.60;0.10;;;14.00;99.90;;;;;;5025485;28;20461;-78
2022/04/12 08:48:58;;;;;;;1.50;1.40;;;14.10;99.90;;;;;;5017616;28;20470;-79
2022/04/12 08:51:43;;;;;;;0.60;0.13;;;14.30;99.90;;;;;;5014457;28;20445;-79
2022/04/12 08:54:17;;;;;;;2.60;0.43;;;14.40;99.90;;;;;;5006632;28;20925;-78
2022/04/12 08:56:55;;;;;;;0.60;0.10;;;14.50;99.90;;;;;;4993699;28;20474;-79
2022/04/12 08:59:31;;;;;;;0.60;0.10;;;14.50;99.90;;;;;;5010622;28;20464;-76
2022/04/12 09:02:10;;;;;;;0.80;0.53;;;14.60;99.90;;;;;;5015936;28;20432;-80
2022/04/12 09:04:47;;;;;;;0.60;0.10;;;14.60;99.90;;;;;;5015908;28;20923;-78
2022/04/12 09:07:25;;;;;;;0.70;0.43;;;14.70;99.90;;;;;;5015264;28;20460;-78
2022/04/12 09:09:53;;;;;;;0.60;0.10;;;14.90;99.90;;;;;;5015626;28;20889;-77
2022/04/12 09:12:22;;;;;;;0.60;0.13;;;14.80;99.90;;;;;;5015046;28;20448;-78
2022/04/12 09:14:52;;;;;;;0.60;0.10;;;;;;;;;;5013603;28;20528;-76
2022/04/12 09:17:35;;;;;;;0.60;0.10;;;15.30;99.90;;;;;;5013680;28;20464;-78
2022/04/12 09:20:20;;;;;;;0.93;0.73;;;15.40;99.90;;;;;;4996089;28;20459;-79
2022/04/12 09:22:53;;;;;;;0.60;0.10;;;15.60;99.90;;;;;;5014085;28;20448;-77
2022/04/12 09:25:33;;;;;;;0.60;0.20;;;;;;;;;;5023252;28;20479;-77
2022/04/12 09:31:35;;;;;;;0.60;0.10;;;;;;;;;;5026185;28;20511;-77
2022/04/12 09:34:25;;;;;;;0.60;0.10;;;;;;;;;;5033625;28;20569;-80
2022/04/12 09:37:42;;;;;;;0.70;0.40;;;;;;;;;;5007485;28;20981;-78
2022/04/12 09:40:20;;;;;;;0.60;0.10;;;16.10;99.90;;;;;;5012939;28;20452;-78
2022/04/12 09:43:05;;;;;;;0.60;0.10;;;16.20;99.90;;;;;;5035039;28;20456;-79
2022/04/12 09:45:37;;;;;;;0.60;0.10;;;16.30;99.90;;;;;;5011693;28;20545;-79
2022/04/12 09:48:33;;;;;;;0.60;0.20;;;16.40;99.90;;;;;;5024228;28;20453;-78
2022/04/12 09:51:28;;;;;;;0.60;0.10;;;16.60;99.90;;;;;;5013830;28;20975;-79
2022/04/12 09:54:02;;;;;;;2.87;2.77;;;16.60;99.90;;;;;;5012372;28;20431;-78
2022/04/12 09:56:39;;;;;;;0.60;0.10;;;16.80;99.90;;;;;;5004565;28;20548;-78
2022/04/12 09:59:14;;;;;;;2.30;2.03;;;;;;;;;;5020794;28;20476;-78
2022/04/12 10:01:58;;;;;;;1.30;0.97;;;17.00;99.90;;;;;;5034809;28;20443;-79
2022/04/12 10:04:36;;;;;;;0.60;0.10;;;17.20;99.90;;;;;;5026666;28;20496;-79
2022/04/12 10:07:08;;;;;;;0.70;0.20;;;17.40;99.90;;;;;;5024819;28;21012;-77
2022/04/12 10:09:38;;;;;;;0.60;0.20;;;17.50;99.90;;;;;;5037312;28;20500;-79
2022/04/12 10:12:07;;;;;;;0.60;0.10;;;17.50;99.90;;;;;;5028194;28;20450;-77
2022/04/12 10:14:35;;;;;;;0.60;0.10;;;17.60;99.90;;;;;;5028809;28;20475;-78
2022/04/12 10:17:05;;;;;;;0.60;0.10;;;17.80;99.90;;;;;;5026669;28;20451;-78
2022/04/12 10:19:34;;;;;;;0.60;0.13;;;17.90;99.90;;;;;;5027124;28;20442;-79
2022/04/12 10:22:03;;;;;;;0.60;0.10;;;17.90;99.90;;;;;;5027384;28;20771;-78
2022/04/12 10:24:34;;;;;;;0.60;0.20;;;18.10;99.90;;;;;;5037844;28;20453;-78
2022/04/12 10:27:03;;;;;;;0.60;0.20;;;18.10;99.90;;;;;;5019416;28;20458;-78
2022/04/12 10:29:33;;;;;;;0.60;0.10;;;18.10;99.90;;;;;;5005229;28;20539;-78
2022/04/12 10:32:03;;;;;;;0.77;0.47;;;18.20;99.90;;;;;;5009410;28;20452;-78
2022/04/12 10:34:59;;;;;;;0.60;0.10;;;18.20;99.90;;;;;;5014032;28;20466;-78
2022/04/12 10:37:28;;;;;;;0.60;0.20;;;18.30;99.90;;;;;;5008772;28;20534;-78
2022/04/12 10:40:19;;;;;;;0.60;0.10;;;18.40;99.90;;;;;;5009818;28;20508;-77
2022/04/12 10:42:56;;;;;;;0.60;0.10;;;18.50;99.90;;;;;;5009997;28;20461;-78
2022/04/12 10:45:32;;;;;;;0.60;0.10;;;18.60;99.90;;;;;;5022123;28;20508;-78
2022/04/12 10:48:04;;;;;;;0.60;0.10;;;18.80;99.90;;;;;;5027451;28;20585;-77
2022/04/12 10:50:41;;;;;;;0.60;0.10;;;18.80;99.90;;;;;;5029956;28;20523;-78
2022/04/12 10:53:09;;;;;;;0.60;0.10;;;18.90;99.90;;;;;;5027614;28;20465;-79
2022/04/12 10:55:41;;;;;;;0.60;0.20;;;19.00;99.90;;;;;;5019966;28;20523;-79
2022/04/12 10:58:13;;;;;;;0.60;0.10;;;19.10;99.90;;;;;;5019275;28;20537;-78
2022/04/12 11:00:43;;;;;;;0.60;0.10;;;;;;;;;;5017412;28;20462;-78
2022/04/12 11:03:12;;;;;;;0.60;0.20;;;19.20;99.90;;;;;;5017519;28;20539;-79
2022/04/12 11:06:05;;;;;;;0.60;0.10;;;19.30;99.90;;;;;;5017453;28;20560;-78
2022/04/12 11:08:51;;;;;;;0.60;0.10;;;19.30;99.90;;;;;;5018904;28;20537;-79
2022/04/12 11:14:28;;;;;;;0.60;0.10;;;19.60;99.90;;;;;;5029248;28;20518;-79
2022/04/12 11:17:01;;;;;;;0.63;0.20;;;19.70;99.90;;;;;;5018451;28;20521;-78
2022/04/12 11:19:41;;;;;;;0.60;0.10;;;19.70;99.90;;;;;;5017931;28;20462;-79
2022/04/12 11:22:11;;;;;;;0.60;0.20;;;;;;;;;;5018776;28;20454;-78
2022/04/12 11:24:40;;;;;;;0.60;0.10;;;20.00;99.90;;;;;;5020093;28;20952;-78
2022/04/12 11:27:09;;;;;;;0.60;0.20;;;20.10;99.90;;;;;;5034971;28;20902;-78
2022/04/12 11:29:40;;;;;;;0.60;0.10;;;20.20;99.90;;;;;;5016532;28;20452;-77
2022/04/12 11:32:09;;;;;;;0.60;0.10;;;20.20;99.90;;;;;;5017723;28;20451;-78
2022/04/12 11:34:39;;;;;;;0.60;0.13;;;20.30;99.90;;;;;;5017589;28;20968;-78
2022/04/12 11:37:12;;;;;;;0.70;0.13;;;20.60;99.90;;;;;;5017737;28;20491;-79
2022/04/12 11:39:43;;;;;;;0.70;0.20;;;20.60;99.90;;;;;;5017273;28;20467;-78
2022/04/12 11:42:18;;;;;;;0.67;0.10;;;20.70;99.90;;;;;;5026542;28;20461;-78
2022/04/12 11:44:58;;;;;;;0.70;0.10;;;;;;;;;;5037154;28;20449;-78
2022/04/12 11:47:39;;;;;;;0.93;0.37;;;;;;;;;;5036993;28;20459;-78
2022/04/12 11:50:24;;;;;;;0.70;0.20;;;;;;;;;;5037851;28;20430;-78
2022/04/12 11:53:13;;;;;;;0.90;0.40;;;;;;;;;;5035885;28;20442;-78
2022/04/12 11:55:45;;;;;;;0.70;0.20;;;21.10;99.90;;;;;;5026778;28;20443;-79
2022/04/12 11:58:13;;;;;;;0.70;0.17;;;21.20;99.90;;;;;;5036064;28;20461;-79
2022/04/12 12:00:43;;;;;;;0.70;0.10;;;21.30;99.90;;;;;;5039629;28;20534;-78
2022/04/12 12:03:16;;;;;;;0.70;0.10;;;21.50;99.90;;;;;;5042813;28;20451;-77
2022/04/12 12:05:45;;;;;;;0.70;0.10;;;21.60;99.90;;;;;;5041332;28;20479;-78
2022/04/12 12:08:18;;;;;;;0.70;0.27;;;21.90;99.90;;;;;;5025601;28;20518;-78
2022/04/12 12:10:46;;;;;;;0.90;0.50;;;21.90;99.90;;;;;;5017151;28;20448;-78
2022/04/12 12:13:14;;;;;;;0.70;0.10;;;22.00;99.90;;;;;;5017742;28;20947;-79
2022/04/12 12:15:46;;;;;;;0.70;0.10;;;22.10;99.90;;;;;;5016387;28;20435;-78
2022/04/12 12:18:18;;;;;;;0.70;0.10;;;22.10;99.90;;;;;;5020357;28;20547;-77
2022/04/12 12:20:47;;;;;;;0.70;0.10;;;22.00;99.90;;;;;;5026237;28;20446;-77
2022/04/12 12:23:15;;;;;;;0.70;0.10;;;22.00;99.90;;;;;;5034104;28;20439;-77
2022/04/12 12:25:55;;;;;;;0.70;0.10;;;21.80;99.90;;;;;;5034305;28;20551;-78
2022/04/12 12:28:24;;;;;;;0.70;0.10;;;21.90;99.90;;;;;;5027481;28;20481;-76
2022/04/12 12:31:00;;;;;;;0.80;0.50;;;21.90;99.90;;;;;;5031760;28;20436;-78
2022/04/12 12:37:30;;;;;;;0.70;0.20;;;;;;;;;;4846760;29;20489;-77
2022/04/12 12:39:58;;;;;;;0.70;0.10;;;;;;;;;;4954781;28;20524;-77
2022/04/12 12:42:36;;;;;;;0.70;0.30;;;22.00;99.90;;;;;;5008506;28;20450;-77
2022/04/12 12:45:11;;;;;;;0.70;0.20;;;22.10;99.90;;;;;;5004203;28;20455;-78
2022/04/12 12:47:43;;;;;;;0.70;0.13;;;22.20;99.90;;;;;;5007570;28;20484;-78
2022/04/12 12:50:12;;;;;;;0.70;0.10;;;22.20;99.90;;;;;;5012104;28;20452;-77
2022/04/12 12:52:44;;;;;;;0.70;0.20;;;22.20;99.90;;;;;;5024041;28;20520;-77
2022/04/12 12:55:18;;;;;;;0.70;0.20;;;22.40;99.90;;;;;;5043891;28;20450;-77
2022/04/12 12:57:48;;;;;;;0.93;0.60;;;22.40;99.90;;;;;;5049212;28;20474;-78
2022/04/12 13:00:21;;;;;;;0.70;0.10;;;22.40;99.90;;;;;;5038252;28;20462;-78
2022/04/12 13:03:03;;;;;;;0.70;0.13;;;22.40;99.90;;;;;;5030991;28;20780;-77
2022/04/12 13:05:45;;;;;;;1.30;1.20;;;22.40;99.90;;;;;;5028765;28;21230;-78
2022/04/12 13:08:22;;;;;;;0.70;0.10;;;22.50;99.90;;;;;;5035403;28;20488;-77
2022/04/12 13:10:58;;;;;;;0.70;0.20;;;22.60;99.90;;;;;;5042148;28;20481;-80
2022/04/12 13:13:31;;;;;;;0.70;0.10;;;;;;;;;;5024356;28;20538;-78
2022/04/12 13:16:00;;;;;;;5.93;2.67;;;;;;;;;;5030345;28;20567;-78
2022/04/12 13:18:30;;;;;;;0.70;0.20;;;;;;;;;;5025215;28;20571;-77
2022/04/12 13:20:59;;;;;;;0.70;0.10;;;23.10;99.90;;;;;;5048402;28;20462;-77
2022/04/12 13:23:28;;;;;;;0.70;0.20;;;;;;;;;;5007143;28;20445;-77
2022/04/12 13:25:59;;;;;;;0.70;0.13;;;;;;;;;;5019817;28;20436;-77
2022/04/12 13:28:28;;;;;;;0.70;0.20;;;;;;;;;;5044390;28;20467;-78
2022/04/12 13:30:56;;;;;;;0.70;0.20;;;;;;;;;;5045164;28;20506;-78
2022/04/12 13:33:24;;;;;;;0.70;0.10;;;23.40;99.90;;;;;;5033704;28;20457;-78
2022/04/12 13:35:59;;;;;;;0.70;0.20;;;23.50;99.90;;;;;;5027134;28;20523;-77